Latest Weather Observations for St Helens

IDT60801

Issued at 9:02 pm EST Wednesday 27 July 2016 (issued every 30 minutes, with the page automatically refreshed every 10 minutes)

About weather observations | Map of weather stations | Latest weather observations for TAS | Other Formats
Station Details ID: 092120 Name: ST HELENS AERODROME Lat: -41.34 Lon: 148.28 Height: 48.0 m
Data from the previous 72 hours. | See also: Recent months at St Helens
Date/Time
EST
Temp
°C
App
Temp
°C
Dew
Point
°C
Rel
Hum
%
Delta-T
°C
Wind Press
QNH
hPa
Press
MSL
hPa
Rain since
9am
mm
Dir  Spd
km/h
Gust
km/h
Spd
kts
Gust
kts
27/09:00pm 9.9 4.8 3.9 66 2.7 W 20 33 11 18 1006.9 1007.0 0.2
27/08:30pm 9.4 4.4 3.6 67 2.5 W 19 35 10 19 1005.8 - 0.2
27/08:00pm 9.6 4.5 2.9 63 2.9 W 19 32 10 17 1005.8 - 0.2
27/07:30pm 9.5 4.1 2.4 61 3.0 WSW 20 43 11 23 1005.4 - 0.2
27/07:00pm 9.1 4.2 2.2 62 2.9 W 17 32 9 17 1005.1 - 0.2
27/06:30pm 8.6 3.7 1.7 62 2.9 W 17 32 9 17 1005.4 - 0.2
27/06:00pm 8.8 3.9 2.2 63 2.8 W 17 30 9 16 1005.7 1005.8 0.2
27/05:30pm 8.9 3.5 2.3 63 2.8 W 20 39 11 21 1005.1 - 0.2
27/05:00pm 8.9 3.6 2.0 62 2.9 NW 19 28 10 15 1005.6 - 0.2
27/04:30pm 9.8 5.3 1.9 58 3.3 WNW 15 28 8 15 1005.5 - 0.2
27/04:00pm 10.2 5.2 1.1 53 3.8 WNW 17 28 9 15 1005.6 - 0.2
27/03:30pm 10.3 4.9 1.2 53 3.8 NNW 19 30 10 16 1005.3 - 0.2
27/03:00pm 10.0 5.3 1.1 54 3.7 WNW 15 24 8 13 1005.7 1005.8 0.2
27/02:30pm 10.2 4.6 0.0 49 4.1 W 19 32 10 17 1005.7 - 0.2
27/02:00pm 10.9 6.2 0.6 49 4.2 W 15 28 8 15 1005.4 - 0.2
27/01:30pm 11.5 7.1 0.6 47 4.5 WNW 13 22 7 12 1005.5 - 0.2
27/01:00pm 11.0 6.9 0.1 47 4.4 W 11 22 6 12 1005.5 - 0.2
27/12:30pm 9.8 5.3 -0.4 49 4.1 W 13 26 7 14 1005.6 - 0.2
27/12:00pm 9.5 5.1 0.4 53 3.7 WNW 13 20 7 11 1005.3 1005.4 0.2
27/11:30am 10.4 7.1 2.3 57 3.5 W 9 19 5 10 1005.6 - 0.2
27/11:00am 10.4 7.0 2.0 56 3.6 SW 9 15 5 8 1005.4 - 0.2
27/10:30am 9.0 5.1 1.4 59 3.1 S 11 17 6 9 1005.1 - 0.2
27/10:00am 8.2 3.1 0.7 59 3.0 SSW 17 24 9 13 1005.2 - 0.2
27/09:30am 8.1 4.2 1.3 62 2.8 SSW 11 24 6 13 1004.7 - 0.2
27/09:00am 7.4 3.0 2.5 71 2.0 SW 15 28 8 15 1004.0 1004.1 14.6
27/08:30am 6.8 3.5 2.5 74 1.8 SSW 9 17 5 9 1003.3 - 14.6
27/08:00am 6.8 3.9 2.7 75 1.7 SW 7 13 4 7 1003.0 - 14.6
27/07:30am 6.8 2.5 3.2 78 1.5 SSW 15 20 8 11 1001.8 - 14.6
27/07:00am 6.7 3.4 4.7 87 0.9 SW 11 17 6 9 1001.3 - 14.6
27/06:30am 6.8 4.6 5.3 90 0.7 SSW 6 9 3 5 1000.7 - 14.6
27/06:00am 5.8 3.4 4.3 90 0.6 SW 6 9 3 5 999.7 999.8 14.6
27/05:30am 7.2 2.8 4.9 85 1.0 NW 17 24 9 13 998.5 - 14.6
27/05:00am 7.1 3.0 4.6 84 1.1 WNW 15 26 8 14 998.6 - 14.6
27/04:30am 6.9 2.0 5.2 89 0.8 WNW 20 32 11 17 997.8 - 14.6
27/04:00am 7.3 2.6 5.9 91 0.6 W 20 37 11 20 998.0 - 13.4
27/03:30am 7.1 2.4 5.3 88 0.8 WNW 19 32 10 17 997.7 - 11.4
27/03:00am 7.7 3.6 6.3 91 0.6 WNW 17 32 9 17 998.2 998.3 11.0
27/02:55am 7.7 3.7 6.5 92 0.6 W 17 33 9 18 998.4 - 10.8
27/02:37am 7.2 4.3 6.6 96 0.3 WSW 11 20 6 11 998.7 - 9.4
27/02:30am 7.2 5.1 6.6 96 0.3 W 7 17 4 9 998.3 - 8.2
27/02:00am 6.8 3.8 6.2 96 0.3 WSW 11 20 6 11 998.3 - 8.2
27/01:30am 6.8 3.8 6.1 95 0.3 WNW 11 17 6 9 998.7 - 7.6
27/01:00am 6.8 3.8 5.9 94 0.4 WNW 11 20 6 11 999.2 - 5.6
27/12:30am 6.9 2.3 5.4 90 0.7 NW 19 26 10 14 999.5 - 4.4
27/12:00am 6.9 2.6 5.2 89 0.8 WNW 17 33 9 18 999.6 999.7 3.6
 
Date/Time
EST
Temp
°C
App
Temp
°C
Dew
Point
°C
Rel
Hum
%
Delta-T
°C
Wind Press
QNH
hPa
Press
MSL
hPa
Rain since
9am
mm
Dir  Spd
km/h
Gust
km/h
Spd
kts
Gust
kts
26/11:30pm 6.9 3.0 5.4 90 0.7 WNW 15 26 8 14 1000.4 - 2.0
26/11:00pm 6.6 2.3 5.1 90 0.7 NW 17 24 9 13 1000.4 - 1.2
26/10:30pm 6.6 2.9 4.3 85 1.0 W 13 24 7 13 1000.5 - 0.4
26/10:00pm 7.1 2.7 4.6 84 1.1 W 17 48 9 26 1000.7 - 0.4
26/09:30pm 8.0 3.0 4.6 79 1.5 NW 20 32 11 17 1000.9 - 0.0
26/09:00pm 7.4 3.2 3.8 78 1.6 W 15 24 8 13 1001.0 1001.1 0.0
26/08:30pm 7.8 3.1 3.1 72 2.0 W 17 35 9 19 1001.2 - 0.0
26/08:00pm 8.2 4.2 2.7 68 2.3 W 13 28 7 15 1001.8 - 0.0
26/07:30pm 8.2 3.4 2.7 68 2.3 WNW 17 30 9 16 1002.0 - 0.0
26/07:00pm 8.1 3.0 2.8 69 2.2 NW 19 30 10 16 1002.1 - 0.0
26/06:30pm 8.8 5.1 2.2 63 2.8 NW 11 26 6 14 1002.1 - 0.0
26/06:00pm 8.8 5.3 1.2 59 3.1 NNW 9 19 5 10 1002.1 1002.2 0.0
26/05:30pm 8.7 4.5 1.4 60 3.0 W 13 26 7 14 1001.7 - 0.0
26/05:00pm 9.1 3.7 1.5 59 3.1 W 19 39 10 21 1001.4 - 0.0
26/04:30pm 9.2 4.2 1.6 59 3.2 W 17 33 9 18 1001.2 - 0.0
26/04:00pm 9.4 4.0 1.1 56 3.4 W 19 35 10 19 1001.2 - 0.0
26/03:30pm 9.5 4.0 1.9 59 3.2 W 20 33 11 18 1001.4 - 0.0
26/03:00pm 9.7 4.0 0.6 53 3.7 W 20 44 11 24 1001.4 1001.5 0.0
26/02:30pm 9.9 3.8 0.5 52 3.8 W 22 39 12 21 1001.4 - 0.0
26/02:14pm 10.3 3.0 -0.2 48 4.2 W 28 54 15 29 1001.3 - 0.0
26/02:00pm 10.9 4.8 0.3 48 4.3 W 22 43 12 23 1001.0 - 0.0
26/01:30pm 10.5 4.1 0.8 51 4.0 W 24 57 13 31 1000.9 - 0.0
26/01:00pm 10.5 4.1 1.1 52 3.9 W 24 48 13 26 1001.2 - 0.0
26/12:30pm 10.5 4.8 0.5 50 4.1 W 20 39 11 21 1001.2 - 0.0
26/12:00pm 10.3 4.6 0.6 51 4.0 W 20 43 11 23 1000.9 1001.0 0.0
26/11:30am 10.0 3.9 0.6 52 3.8 W 22 41 12 22 1000.6 - 0.0
26/11:00am 9.6 3.4 -0.6 49 4.0 W 22 41 12 22 1000.5 - 0.0
26/10:30am 9.4 3.6 -0.2 51 3.8 W 20 48 11 26 1000.1 - 0.0
26/10:00am 8.8 2.5 -1.0 50 3.8 W 22 43 12 23 999.8 - 0.0
26/09:30am 8.3 2.0 -1.2 51 3.6 W 22 44 12 24 999.9 - 0.0
26/09:00am 7.7 1.4 -1.0 54 3.4 W 22 46 12 25 999.6 999.7 10.4
26/08:30am 7.0 0.8 -0.4 59 2.9 W 22 48 12 26 999.4 - 10.4
26/08:00am 6.4 0.5 -0.6 61 2.7 W 20 35 11 19 999.1 - 10.4
26/07:30am 6.3 0.7 -0.2 63 2.5 W 19 32 10 17 998.7 - 10.4
26/07:00am 6.3 0.8 0.4 66 2.3 W 19 39 10 21 998.1 - 10.4
26/06:30am 6.2 0.7 0.3 66 2.3 W 19 30 10 16 997.9 - 10.4
26/06:00am 6.4 1.3 0.5 66 2.3 W 17 30 9 16 997.3 997.3 10.4
26/05:30am 6.5 1.7 0.4 65 2.4 W 15 30 8 16 997.4 - 10.4
26/05:00am 6.7 1.5 0.4 64 2.5 W 17 32 9 17 996.6 - 10.4
26/04:30am 6.5 2.1 0.6 66 2.3 W 13 24 7 13 996.3 - 10.4
26/04:00am 6.5 1.3 0.2 64 2.5 W 17 30 9 16 996.1 - 10.4
26/03:30am 7.0 1.3 0.5 63 2.6 WNW 20 35 11 19 995.6 - 10.4
26/03:00am 7.1 1.6 0.3 62 2.7 W 19 32 10 17 995.3 995.3 10.4
26/02:30am 7.3 1.8 0.5 62 2.7 W 19 48 10 26 994.8 - 10.4
26/02:00am 7.2 1.8 1.3 66 2.4 W 19 41 10 22 994.4 - 10.4
26/01:30am 7.4 1.8 1.3 65 2.5 W 20 44 11 24 993.8 - 10.4
26/01:00am 7.4 2.0 1.5 66 2.4 W 19 43 10 23 993.5 - 10.4
26/12:30am 7.8 1.9 1.9 66 2.4 W 22 43 12 23 993.1 - 10.4
26/12:00am 8.0 1.8 2.3 67 2.4 WNW 24 46 13 25 992.9 992.9 10.4
 
Date/Time
EST
Temp
°C
App
Temp
°C
Dew
Point
°C
Rel
Hum
%
Delta-T
°C
Wind Press
QNH
hPa
Press
MSL
hPa
Rain since
9am
mm
Dir  Spd
km/h
Gust
km/h
Spd
kts
Gust
kts
25/11:30pm 8.7 1.8 2.3 64 2.7 W 28 48 15 26 992.8 - 10.4
25/11:00pm 8.8 1.5 2.4 64 2.7 W 30 59 16 32 992.5 - 10.4
25/10:33pm 8.7 1.8 2.7 66 2.5 W 28 54 15 29 991.9 - 10.4
25/10:30pm 8.6 2.1 2.8 67 2.5 W 26 54 14 29 991.9 - 10.4
25/10:02pm 8.6 2.3 5.5 81 1.4 WNW 28 48 15 26 991.6 - 10.4
25/10:00pm 8.7 2.8 6.0 83 1.2 WNW 26 48 14 26 991.6 - 10.4
25/09:30pm 7.9 2.5 6.4 90 0.7 NW 24 39 13 21 991.7 - 10.4
25/09:01pm 8.0 1.0 6.8 92 0.6 NW 33 57 18 31 992.6 - 10.0
25/09:00pm 8.0 1.0 6.8 92 0.6 NW 33 48 18 26 992.6 992.6 10.0
25/08:36pm 8.4 2.1 7.3 93 0.5 NW 30 52 16 28 992.3 - 8.8
25/08:30pm 8.5 2.6 7.6 94 0.4 NW 28 50 15 27 992.6 - 8.6
25/08:17pm 8.2 0.8 6.7 90 0.7 NNW 35 63 19 34 992.5 - 7.6
25/08:00pm 9.1 1.6 6.4 83 1.3 NNW 35 61 19 33 992.6 - 6.0
25/07:30pm 9.7 2.6 6.4 80 1.5 NW 33 54 18 29 993.2 - 4.6
25/07:00pm 10.0 3.1 6.3 78 1.7 NW 32 52 17 28 993.3 - 4.6
25/06:47pm 10.0 3.9 6.5 79 1.6 NW 28 54 15 29 993.6 - 4.6
25/06:30pm 9.7 4.3 6.2 79 1.6 NNW 24 35 13 19 994.4 - 4.6
25/06:00pm 9.9 6.0 5.5 74 2.0 N 15 22 8 12 995.1 995.1 4.6
25/05:30pm 9.8 5.3 4.4 69 2.4 N 17 22 9 12 995.8 - 4.6
25/05:00pm 10.3 6.5 4.0 65 2.8 NW 13 24 7 13 996.2 - 4.6
25/04:30pm 10.8 6.4 4.7 66 2.8 NW 17 24 9 13 996.3 - 4.6
25/04:00pm 11.6 6.4 5.3 65 2.9 WNW 22 43 12 23 996.7 - 4.6
25/03:30pm 11.8 7.0 5.4 65 3.0 WNW 20 41 11 22 997.1 - 4.6
25/03:00pm 12.9 8.2 6.0 63 3.3 WNW 20 32 11 17 996.9 996.9 4.6
25/02:30pm 13.4 8.9 6.0 61 3.5 WNW 19 37 10 20 997.0 - 4.6
25/02:00pm 13.0 8.4 6.4 64 3.2 WNW 20 35 11 19 997.0 - 4.6
25/01:30pm 12.3 7.6 6.1 66 2.9 WNW 20 35 11 19 997.0 - 4.6
25/01:00pm 12.5 10.4 8.2 75 2.1 NW 9 13 5 7 997.6 - 4.6
25/12:30pm 12.0 10.0 8.7 80 1.6 WNW 9 13 5 7 997.9 - 4.6
25/12:00pm 11.4 10.2 9.5 88 1.0 WNW 6 9 3 5 998.3 998.4 4.6
25/11:30am 10.5 8.8 9.7 95 0.4 NNW 9 13 5 7 998.8 - 4.6
25/11:20am 9.7 7.8 9.2 97 0.2 NNE 9 13 5 7 998.8 - 4.6
25/11:00am 8.9 7.7 8.0 94 0.4 NNW 4 7 2 4 999.6 - 3.4
25/10:43am 9.2 8.0 8.0 92 0.6 NW 4 7 2 4 999.8 - 1.4
25/10:39am 9.2 7.6 8.0 92 0.6 WNW 6 11 3 6 999.9 - 1.0
25/10:30am 9.5 7.3 7.9 90 0.8 NW 9 19 5 10 1000.0 - 0.2
25/10:21am 9.6 7.8 8.0 90 0.8 NNW 7 15 4 8 1000.1 - 0.0
25/10:20am 9.7 7.9 8.1 90 0.8 NNW 7 15 4 8 1000.1 - 0.0
25/10:07am 9.6 7.1 8.0 90 0.8 NW 11 20 6 11 1000.1 - 0.0
25/10:00am 9.6 6.6 7.9 89 0.8 NW 13 22 7 12 1000.1 - 0.0
25/09:30am 8.7 6.9 8.1 96 0.3 WNW 7 13 4 7 1000.3 - 0.0
25/09:00am 6.8 4.8 6.4 97 0.2 WNW 6 11 3 6 1000.5 1000.6 0.0
25/08:30am 5.5 2.8 5.4 99 0.0 NNW 9 13 5 7 1000.6 - 0.0
25/08:00am 4.2 1.2 3.9 98 0.1 NW 9 13 5 7 1000.8 - 0.0
25/07:30am 4.1 1.0 3.8 98 0.1 NW 9 13 5 7 1001.0 - 0.0
25/07:00am 3.6 0.4 3.2 97 0.2 N 9 13 5 7 1000.9 - 0.0
25/06:30am 4.2 2.1 3.8 97 0.2 WNW 4 7 2 4 1000.9 - 0.0
25/06:00am 4.1 1.6 3.7 97 0.2 N 6 7 3 4 1000.9 1001.0 0.0
25/05:30am 4.7 2.1 4.3 97 0.2 N 7 9 4 5 1001.0 - 0.0
25/05:00am 4.6 3.3 3.9 95 0.3 CALM 0 0 0 0 1001.0 - 0.0
25/04:30am 5.0 2.9 4.0 93 0.4 WNW 4 7 2 4 1001.2 - 0.0
25/04:00am 5.5 4.0 4.8 95 0.3 WSW 2 7 1 4 1001.4 - 0.0
25/03:30am 4.9 3.6 4.3 96 0.3 CALM 0 6 0 3 1001.4 - 0.0
25/03:00am 5.0 3.4 4.4 96 0.3 WNW 2 7 1 4 1001.6 1001.7 0.0
25/02:30am 4.9 2.9 4.3 96 0.3 NNW 4 9 2 5 1002.1 - 0.0
25/02:00am 4.8 2.2 4.2 96 0.3 WNW 7 9 4 5 1002.1 - 0.0
25/01:30am 4.1 2.0 3.7 97 0.2 W 4 9 2 5 1002.1 - 0.0
25/01:00am 3.7 0.9 3.1 96 0.2 WNW 7 13 4 7 1002.0 - 0.0
25/12:30am 3.6 0.4 2.9 95 0.3 WNW 9 13 5 7 1002.3 - 0.0
25/12:00am 4.2 2.4 3.2 93 0.4 WNW 2 7 1 4 1002.7 1002.8 0.0
 
Date/Time
EST
Temp
°C
App
Temp
°C
Dew
Point
°C
Rel
Hum
%
Delta-T
°C
Wind Press
QNH
hPa
Press
MSL
hPa
Rain since
9am
mm
Dir  Spd
km/h
Gust
km/h
Spd
kts
Gust
kts
24/11:30pm 4.6 2.0 3.4 92 0.5 WNW 6 11 3 6 1002.9 - 0.0
24/11:00pm 4.4 2.5 2.9 90 0.6 SW 2 7 1 4 1003.0 - 0.0
24/10:30pm 5.5 3.1 4.2 91 0.6 NNW 6 7 3 4 1003.1 - 0.0
24/10:00pm 5.4 2.4 4.1 91 0.6 NW 9 15 5 8 1003.2 - 0.0
24/09:30pm 5.6 2.2 4.1 90 0.6 NW 11 15 6 8 1003.5 - 0.0

Other Formats:

Comma delimited format used in spreadsheet applications
http://www.bom.gov.au/fwo/IDT60801/IDT60801.95981.axf

JavaScript Object Notation format (JSON) in row-major order
http://www.bom.gov.au/fwo/IDT60801/IDT60801.95981.json